createdAt,value
2018-11-21T00:01:22.763Z,99.90
2018-11-21T00:03:51.041Z,99.90
2018-11-21T00:06:19.343Z,99.90
2018-11-21T00:08:47.642Z,99.90
2018-11-21T00:11:15.923Z,99.90
2018-11-21T00:13:44.157Z,99.90
2018-11-21T00:16:12.559Z,99.90
2018-11-21T00:18:40.950Z,99.90
2018-11-21T00:21:09.413Z,99.90
2018-11-21T00:23:37.726Z,99.90
2018-11-21T00:26:06.281Z,99.90
2018-11-21T00:28:34.607Z,99.90
2018-11-21T00:31:02.935Z,99.90
2018-11-21T00:33:31.235Z,99.90
2018-11-21T00:35:59.567Z,99.90
2018-11-21T00:38:30.240Z,99.90
2018-11-21T00:40:58.563Z,99.90
2018-11-21T00:43:27.204Z,99.90
2018-11-21T00:45:55.806Z,99.90
2018-11-21T00:48:24.092Z,99.90
2018-11-21T00:50:52.781Z,99.90
2018-11-21T00:53:21.046Z,99.90
2018-11-21T00:55:49.355Z,99.90
2018-11-21T00:58:17.715Z,99.90
2018-11-21T01:00:45.987Z,99.90
2018-11-21T01:03:14.300Z,99.90
2018-11-21T01:05:42.974Z,99.90
2018-11-21T01:08:11.558Z,99.90
2018-11-21T01:10:39.899Z,99.90
2018-11-21T01:13:08.185Z,99.90
2018-11-21T01:15:36.495Z,99.90
2018-11-21T01:18:05.113Z,99.90
2018-11-21T01:20:33.396Z,99.90
2018-11-21T01:23:01.768Z,99.90
2018-11-21T01:25:30.064Z,99.90
2018-11-21T01:27:58.325Z,99.90
2018-11-21T01:30:26.632Z,99.90
2018-11-21T01:32:55.019Z,99.90
2018-11-21T01:35:23.345Z,99.90
2018-11-21T01:37:51.939Z,99.90
2018-11-21T01:40:20.223Z,99.90
2018-11-21T01:42:48.593Z,99.90
2018-11-21T01:45:16.886Z,99.90
2018-11-21T01:47:45.147Z,99.90
2018-11-21T01:50:13.426Z,99.90
2018-11-21T01:52:41.752Z,99.90
2018-11-21T01:55:10.032Z,99.90
2018-11-21T01:57:38.317Z,99.90
2018-11-21T02:00:08.646Z,99.90
2018-11-21T02:02:36.973Z,99.90
2018-11-21T02:05:05.345Z,99.90
2018-11-21T02:07:33.657Z,99.90
2018-11-21T02:10:01.914Z,99.90
2018-11-21T02:12:30.253Z,99.90
2018-11-21T02:14:58.534Z,99.90
2018-11-21T02:17:26.840Z,99.90
2018-11-21T02:19:55.157Z,99.90
2018-11-21T02:22:23.771Z,99.90
2018-11-21T02:24:52.002Z,99.90
2018-11-21T02:27:21.952Z,99.90
2018-11-21T02:29:50.398Z,99.90
2018-11-21T02:32:18.693Z,99.90
2018-11-21T02:34:46.983Z,99.90
2018-11-21T02:37:15.330Z,99.90
2018-11-21T02:39:43.610Z,99.90
2018-11-21T02:42:11.917Z,99.90
2018-11-21T02:44:40.214Z,99.90
2018-11-21T02:47:08.520Z,99.90
2018-11-21T02:49:37.228Z,99.90
2018-11-21T02:52:05.825Z,99.90
2018-11-21T02:54:34.199Z,99.90
2018-11-21T02:57:25.692Z,99.90
2018-11-21T02:59:56.080Z,99.90
2018-11-21T03:02:24.490Z,99.90
2018-11-21T03:04:52.775Z,99.90
2018-11-21T03:07:21.076Z,99.90
2018-11-21T03:09:49.370Z,99.90
2018-11-21T03:12:17.667Z,99.90
2018-11-21T03:14:45.987Z,99.90
2018-11-21T03:17:14.345Z,99.90
2018-11-21T03:19:42.636Z,99.90
2018-11-21T03:22:10.911Z,99.90
2018-11-21T03:24:39.212Z,99.90
2018-11-21T03:27:07.587Z,99.90
2018-11-21T03:29:35.876Z,99.90
2018-11-21T03:32:04.606Z,99.90
2018-11-21T03:34:32.931Z,99.90
2018-11-21T03:37:01.279Z,99.90
2018-11-21T03:39:29.560Z,99.90
2018-11-21T03:41:57.829Z,99.90
2018-11-21T03:44:26.345Z,99.90
2018-11-21T03:46:55.210Z,99.90
2018-11-21T03:49:23.722Z,99.90
2018-11-21T03:51:52.251Z,99.90
2018-11-21T03:54:20.847Z,99.90
2018-11-21T03:56:49.279Z,99.90
2018-11-21T03:59:17.780Z,99.90
2018-11-21T04:01:46.309Z,99.90
2018-11-21T04:04:15.129Z,99.90
2018-11-21T04:06:43.993Z,99.90
2018-11-21T04:09:13.352Z,99.90
2018-11-21T04:11:41.827Z,99.90
2018-11-21T04:14:10.431Z,99.90
2018-11-21T04:16:38.967Z,99.90
2018-11-21T04:19:07.510Z,99.90
2018-11-21T04:21:35.985Z,99.90
2018-11-21T04:24:04.514Z,99.90
2018-11-21T04:26:33.056Z,99.90
2018-11-21T04:29:01.620Z,99.90
2018-11-21T04:31:30.147Z,99.90
2018-11-21T04:33:58.712Z,99.90
2018-11-21T04:36:27.230Z,99.90
2018-11-21T04:38:55.922Z,99.90
2018-11-21T04:41:24.418Z,99.90
2018-11-21T04:43:52.936Z,99.90
2018-11-21T04:46:21.441Z,99.90
2018-11-21T04:48:50.019Z,99.90
2018-11-21T04:51:18.511Z,99.90
2018-11-21T04:53:47.074Z,99.90
2018-11-21T04:56:15.560Z,99.90
2018-11-21T04:58:44.188Z,99.90
2018-11-21T05:01:12.746Z,99.90
2018-11-21T05:03:41.219Z,99.90
2018-11-21T05:06:09.533Z,99.90
2018-11-21T05:08:37.810Z,99.90
2018-11-21T05:11:06.455Z,99.90
2018-11-21T05:13:34.427Z,99.90
2018-11-21T05:16:02.724Z,99.90
2018-11-21T05:18:31.040Z,99.90
2018-11-21T05:20:59.710Z,99.90
2018-11-21T05:23:28.016Z,99.90
2018-11-21T05:25:56.324Z,99.90
2018-11-21T05:28:24.815Z,99.90
2018-11-21T05:30:53.128Z,99.90
2018-11-21T05:33:21.412Z,99.90
2018-11-21T05:35:49.774Z,99.90
2018-11-21T05:38:18.110Z,99.90
2018-11-21T05:40:46.405Z,99.90
2018-11-21T05:43:15.827Z,99.90
2018-11-21T05:45:44.218Z,99.90
2018-11-21T05:48:12.576Z,99.90
2018-11-21T05:50:41.259Z,99.90
2018-11-21T05:53:09.555Z,99.90
2018-11-21T05:55:37.879Z,99.90
2018-11-21T05:58:06.208Z,99.90
2018-11-21T06:00:34.549Z,99.90
2018-11-21T06:03:02.831Z,99.90
2018-11-21T06:05:31.479Z,99.90
2018-11-21T06:07:59.787Z,99.90
2018-11-21T06:10:28.093Z,99.90
2018-11-21T06:12:56.432Z,99.90
2018-11-21T06:15:24.738Z,99.90
2018-11-21T06:17:53.012Z,99.90
2018-11-21T06:20:21.344Z,99.90
2018-11-21T06:22:49.669Z,99.90
2018-11-21T06:25:18.443Z,99.90
2018-11-21T06:27:46.713Z,99.90
2018-11-21T06:30:15.328Z,99.90
2018-11-21T06:32:44.023Z,99.90
2018-11-21T06:35:12.829Z,99.90
2018-11-21T06:37:41.123Z,99.90
2018-11-21T06:40:11.937Z,99.90
2018-11-21T06:42:40.895Z,99.90
2018-11-21T06:45:09.924Z,99.90
2018-11-21T06:47:38.202Z,99.90
2018-11-21T06:50:07.084Z,99.90
2018-11-21T06:52:35.396Z,99.90
2018-11-21T06:55:03.752Z,99.90
2018-11-21T06:57:32.091Z,99.90
2018-11-21T07:00:00.388Z,99.90
2018-11-21T07:02:28.682Z,99.90
2018-11-21T07:04:57.024Z,99.90
2018-11-21T07:07:25.298Z,99.90
2018-11-21T07:09:53.600Z,99.90
2018-11-21T07:12:21.879Z,99.90
2018-11-21T07:14:50.146Z,99.90
2018-11-21T07:17:18.467Z,99.90
2018-11-21T07:19:46.755Z,99.90
2018-11-21T07:22:15.068Z,99.90
2018-11-21T07:24:43.326Z,99.90
2018-11-21T07:27:13.376Z,99.90
2018-11-21T07:29:41.714Z,99.90
2018-11-21T07:32:10.049Z,99.90
2018-11-21T07:34:38.337Z,99.90
2018-11-21T07:37:06.689Z,99.90
2018-11-21T07:39:34.979Z,99.90
2018-11-21T07:42:03.249Z,99.90
2018-11-21T07:44:31.544Z,99.90
2018-11-21T07:46:59.901Z,99.90
2018-11-21T07:49:28.232Z,99.90
2018-11-21T07:51:56.550Z,99.90
2018-11-21T07:54:24.903Z,99.90
2018-11-21T07:57:32.629Z,99.90
2018-11-21T08:00:39.015Z,99.90
2018-11-21T08:03:07.256Z,99.90
2018-11-21T08:05:36.357Z,99.90
2018-11-21T08:08:22.891Z,99.90
2018-11-21T08:11:07.252Z,99.90
2018-11-21T08:13:53.679Z,99.90
2018-11-21T08:16:55.276Z,99.90
2018-11-21T08:20:00.625Z,99.90
2018-11-21T08:22:50.941Z,99.90
2018-11-21T08:25:33.009Z,99.90
2018-11-21T08:28:29.500Z,99.90
2018-11-21T08:30:57.833Z,99.90
2018-11-21T08:33:26.326Z,99.90
2018-11-21T08:35:54.697Z,99.90
2018-11-21T08:38:23.005Z,99.90
2018-11-21T08:40:51.299Z,99.90
2018-11-21T08:43:20.039Z,99.90
2018-11-21T08:45:48.373Z,99.90
2018-11-21T08:48:17.599Z,99.90
2018-11-21T08:50:45.986Z,99.90
2018-11-21T08:53:14.310Z,99.90
2018-11-21T08:55:42.624Z,99.90
2018-11-21T08:58:10.938Z,99.90
2018-11-21T09:00:39.282Z,99.90
2018-11-21T09:03:07.912Z,99.90
2018-11-21T09:05:36.205Z,99.90
2018-11-21T09:08:05.500Z,99.90
2018-11-21T09:13:01.476Z,99.90
2018-11-21T09:15:30.773Z,99.90
2018-11-21T09:17:59.055Z,99.90
2018-11-21T09:20:27.364Z,99.80
2018-11-21T09:22:55.624Z,99.80
2018-11-21T09:25:23.904Z,99.70
2018-11-21T09:27:52.196Z,99.60
2018-11-21T09:30:21.583Z,99.70
2018-11-21T09:32:51.310Z,99.60
2018-11-21T09:35:20.074Z,99.90
2018-11-21T09:37:48.452Z,99.80
2018-11-21T09:40:18.289Z,99.90
2018-11-21T09:42:47.785Z,99.90
2018-11-21T09:45:17.490Z,99.80
2018-11-21T09:47:45.819Z,99.70
2018-11-21T09:50:16.699Z,99.40
2018-11-21T09:52:50.187Z,99.00
2018-11-21T09:55:13.577Z,98.80
2018-11-21T09:57:41.934Z,98.90
2018-11-21T10:00:47.945Z,99.00
2018-11-21T10:03:18.147Z,98.80
2018-11-21T10:05:57.561Z,98.40
2018-11-21T10:08:38.755Z,98.20
2018-11-21T10:11:07.930Z,98.20
2018-11-21T10:13:36.219Z,98.30
2018-11-21T10:16:05.319Z,98.10
2018-11-21T10:18:34.611Z,98.10
2018-11-21T10:21:03.180Z,98.20
2018-11-21T10:23:31.585Z,98.20
2018-11-21T10:25:59.861Z,98.20
2018-11-21T10:28:28.549Z,98.10
2018-11-21T10:30:56.903Z,98.20
2018-11-21T10:33:25.240Z,98.30
2018-11-21T10:35:53.982Z,97.90
2018-11-21T10:38:22.569Z,97.90
2018-11-21T10:40:50.842Z,97.80
2018-11-21T10:43:19.192Z,97.50
2018-11-21T10:45:47.497Z,97.40
2018-11-21T10:48:15.796Z,97.40
2018-11-21T10:50:44.102Z,97.30
2018-11-21T10:53:12.555Z,97.40
2018-11-21T10:55:40.847Z,97.30
2018-11-21T10:58:09.435Z,97.00
2018-11-21T11:00:55.336Z,96.80
2018-11-21T11:03:48.890Z,96.70
2018-11-21T11:06:39.134Z,96.50
2018-11-21T11:09:28.243Z,96.50
2018-11-21T11:12:14.395Z,96.50
2018-11-21T11:15:04.651Z,96.40
2018-11-21T11:17:51.244Z,96.60
2018-11-21T11:20:38.694Z,96.60
2018-11-21T11:23:32.341Z,96.40
2018-11-21T11:26:18.553Z,96.10
2018-11-21T11:29:06.032Z,96.50
2018-11-21T11:31:53.475Z,96.90
2018-11-21T11:34:43.689Z,96.70
2018-11-21T11:37:40.611Z,97.10
2018-11-21T11:40:44.608Z,97.00
2018-11-21T11:43:32.079Z,96.90
2018-11-21T11:46:18.211Z,96.80
2018-11-21T11:49:11.681Z,96.70
2018-11-21T11:52:02.810Z,96.90
2018-11-21T11:54:49.112Z,97.00
2018-11-21T11:57:39.265Z,96.90
2018-11-21T12:00:27.432Z,97.10
2018-11-21T12:03:13.582Z,96.80
2018-11-21T12:06:02.494Z,96.70
2018-11-21T12:09:01.815Z,96.90
2018-11-21T12:11:47.810Z,96.60
2018-11-21T12:14:33.854Z,96.70
2018-11-21T12:17:24.654Z,97.10
2018-11-21T12:20:30.584Z,97.20
2018-11-21T12:23:30.394Z,97.30
2018-11-21T12:26:19.903Z,97.30
2018-11-21T12:29:16.054Z,97.20
2018-11-21T12:32:02.359Z,97.00
2018-11-21T12:34:48.454Z,96.80
2018-11-21T12:37:34.531Z,96.90
2018-11-21T12:40:31.040Z,96.80
2018-11-21T12:43:13.592Z,96.90
2018-11-21T12:45:59.387Z,96.90
2018-11-21T12:48:59.034Z,96.90
2018-11-21T12:51:40.074Z,96.70
2018-11-21T12:54:26.368Z,96.60
2018-11-21T12:57:12.438Z,96.70
2018-11-21T12:59:58.523Z,96.70
2018-11-21T13:02:35.948Z,96.80
2018-11-21T13:05:14.352Z,96.80
2018-11-21T13:08:00.673Z,96.70
2018-11-21T13:11:00.466Z,96.50
2018-11-21T13:13:50.662Z,96.80
2018-11-21T13:16:50.088Z,96.90
2018-11-21T13:19:36.258Z,96.90
2018-11-21T13:22:22.350Z,96.80
2018-11-21T13:25:27.764Z,96.70
2018-11-21T13:28:27.538Z,96.70
2018-11-21T13:31:13.917Z,96.60
2018-11-21T13:34:00.145Z,96.60
2018-11-21T13:36:53.358Z,96.40
2018-11-21T13:39:59.284Z,96.80
2018-11-21T13:42:45.243Z,96.90
2018-11-21T13:45:38.679Z,97.00
2018-11-21T13:48:44.512Z,97.10
2018-11-21T13:51:47.013Z,97.30
2018-11-21T13:54:44.203Z,97.30
2018-11-21T13:57:12.562Z,97.00
2018-11-21T13:59:40.872Z,97.20
2018-11-21T14:02:09.150Z,97.40
2018-11-21T14:04:37.431Z,97.50
2018-11-21T14:07:06.331Z,97.70
2018-11-21T14:09:34.617Z,97.60
2018-11-21T14:12:02.956Z,97.90
2018-11-21T14:14:31.209Z,97.70
2018-11-21T14:16:59.723Z,97.80
2018-11-21T14:19:28.009Z,97.70
2018-11-21T14:21:56.291Z,97.60
2018-11-21T14:24:24.594Z,97.70
2018-11-21T14:26:52.870Z,97.70
2018-11-21T14:29:21.178Z,97.70
2018-11-21T14:31:49.495Z,97.70
2018-11-21T14:34:18.121Z,97.80
2018-11-21T14:36:46.542Z,97.60
2018-11-21T14:39:15.342Z,97.80
2018-11-21T14:41:44.612Z,97.80
2018-11-21T14:44:12.919Z,97.80
2018-11-21T14:46:42.495Z,98.10
2018-11-21T14:49:10.823Z,98.00
2018-11-21T14:51:39.367Z,98.00
2018-11-21T14:54:08.291Z,98.00
2018-11-21T14:56:36.608Z,98.00
2018-11-21T14:59:05.933Z,98.00
2018-11-21T15:01:34.286Z,98.00
2018-11-21T15:04:02.603Z,98.00
2018-11-21T15:06:30.890Z,98.20
2018-11-21T15:08:59.234Z,98.20
2018-11-21T15:11:27.523Z,98.10
2018-11-21T15:13:55.771Z,98.20
2018-11-21T15:16:24.026Z,98.30
2018-11-21T15:18:52.273Z,98.60
2018-11-21T15:21:20.561Z,98.70
2018-11-21T15:23:48.830Z,98.90
2018-11-21T15:26:17.082Z,99.20
2018-11-21T15:28:45.378Z,98.80
2018-11-21T15:31:13.998Z,98.70
2018-11-21T15:33:42.335Z,98.70
2018-11-21T15:36:10.613Z,98.90
2018-11-21T15:38:38.947Z,99.00
2018-11-21T15:41:07.256Z,99.00
2018-11-21T15:43:35.617Z,99.00
2018-11-21T15:46:04.266Z,98.90
2018-11-21T15:48:32.593Z,99.10
2018-11-21T15:51:00.875Z,99.10
2018-11-21T15:53:29.197Z,99.20
2018-11-21T15:55:57.470Z,99.10
2018-11-21T15:58:26.201Z,99.00
2018-11-21T16:00:54.574Z,99.20
2018-11-21T16:03:22.911Z,99.10
2018-11-21T16:05:51.203Z,99.10
2018-11-21T16:08:19.884Z,99.20
2018-11-21T16:10:49.036Z,99.10
2018-11-21T16:13:17.337Z,99.30
2018-11-21T16:15:47.287Z,99.20
2018-11-21T16:18:16.525Z,99.10
2018-11-21T16:20:44.823Z,99.10
2018-11-21T16:23:13.095Z,99.00
2018-11-21T16:25:41.551Z,99.00
2018-11-21T16:28:10.031Z,98.80
2018-11-21T16:30:38.320Z,98.60
2018-11-21T16:33:06.573Z,98.70
2018-11-21T16:35:35.050Z,98.70
2018-11-21T16:38:03.289Z,98.70
2018-11-21T16:40:32.553Z,98.60
2018-11-21T16:43:01.100Z,98.70
2018-11-21T16:45:31.191Z,98.80
2018-11-21T16:47:59.543Z,98.90
2018-11-21T16:50:27.886Z,99.90
2018-11-21T16:52:56.193Z,99.20
2018-11-21T16:55:25.862Z,99.00
2018-11-21T16:57:55.071Z,99.10
2018-11-21T17:00:25.087Z,99.10
2018-11-21T17:02:53.701Z,99.00
2018-11-21T17:05:23.206Z,98.90
2018-11-21T17:07:51.470Z,99.10
2018-11-21T17:10:21.376Z,99.20
2018-11-21T17:12:49.955Z,99.30
2018-11-21T17:15:19.683Z,99.40
2018-11-21T17:17:48.152Z,99.40
2018-11-21T17:20:18.719Z,99.30
2018-11-21T17:22:48.328Z,99.20
2018-11-21T17:25:18.227Z,99.10
2018-11-21T17:27:46.881Z,99.00
2018-11-21T17:30:16.390Z,99.10
2018-11-21T17:32:44.769Z,99.10
2018-11-21T17:35:14.063Z,99.00
2018-11-21T17:37:42.363Z,99.20
2018-11-21T17:40:22.714Z,98.80
2018-11-21T17:42:51.172Z,98.70
2018-11-21T17:45:19.830Z,98.60
2018-11-21T17:47:48.068Z,98.50
2018-11-21T17:50:17.639Z,98.50
2018-11-21T17:52:46.579Z,98.50
2018-11-21T17:55:16.571Z,98.40
2018-11-21T17:57:44.904Z,98.50
2018-11-21T18:00:15.182Z,98.30
2018-11-21T18:02:43.507Z,98.40
2018-11-21T18:05:13.145Z,98.40
2018-11-21T18:07:41.453Z,98.40
2018-11-21T18:10:12.185Z,98.40
2018-11-21T18:12:40.746Z,98.70
2018-11-21T18:15:10.007Z,98.50
2018-11-21T18:17:38.320Z,98.70
2018-11-21T18:20:08.331Z,98.60
2018-11-21T18:22:36.738Z,98.70
2018-11-21T18:25:07.118Z,98.90
2018-11-21T18:27:35.383Z,99.00
2018-11-21T18:30:05.029Z,98.90
2018-11-21T18:32:33.339Z,98.60
2018-11-21T18:35:01.610Z,98.50
2018-11-21T18:37:29.923Z,98.40
2018-11-21T18:39:58.190Z,98.20
2018-11-21T18:42:26.504Z,98.30
2018-11-21T18:44:54.761Z,98.20
2018-11-21T18:47:23.147Z,98.20
2018-11-21T18:49:51.442Z,98.30
2018-11-21T18:52:19.824Z,98.20
2018-11-21T18:54:48.161Z,98.30
2018-11-21T18:57:57.073Z,98.30
2018-11-21T19:00:28.312Z,98.20
2018-11-21T19:02:56.622Z,98.30
2018-11-21T19:05:24.921Z,98.10
2018-11-21T19:07:53.392Z,98.10
2018-11-21T19:10:22.135Z,98.10
2018-11-21T19:12:50.407Z,98.10
2018-11-21T19:15:18.703Z,98.00
2018-11-21T19:17:47.064Z,98.10
2018-11-21T19:20:16.958Z,97.70
2018-11-21T19:22:45.274Z,97.80
2018-11-21T19:25:13.926Z,97.80
2018-11-21T19:27:42.769Z,97.80
2018-11-21T19:30:12.895Z,97.90
2018-11-21T19:32:41.734Z,98.00
2018-11-21T19:35:10.278Z,98.20
2018-11-21T19:37:38.595Z,98.10
2018-11-21T19:40:09.182Z,98.20
2018-11-21T19:42:37.557Z,98.10
2018-11-21T19:45:08.015Z,98.00
2018-11-21T19:47:36.369Z,98.00
2018-11-21T19:50:05.196Z,98.40
2018-11-21T19:52:33.549Z,98.20
2018-11-21T19:55:01.820Z,98.40
2018-11-21T19:57:31.626Z,98.30
2018-11-21T19:59:59.886Z,98.20
2018-11-21T20:02:28.211Z,98.10
2018-11-21T20:04:56.543Z,98.10
2018-11-21T20:07:24.972Z,98.30
2018-11-21T20:09:53.271Z,98.40
2018-11-21T20:12:21.582Z,98.50
2018-11-21T20:14:49.891Z,98.30
2018-11-21T20:17:18.154Z,98.30
2018-11-21T20:19:46.421Z,98.00
2018-11-21T20:22:14.810Z,98.00
2018-11-21T20:24:43.119Z,97.90
2018-11-21T20:27:11.416Z,97.90
2018-11-21T20:29:39.802Z,97.80
2018-11-21T20:32:08.071Z,97.80
2018-11-21T20:34:36.357Z,97.70
2018-11-21T20:37:04.647Z,97.60
2018-11-21T20:39:33.081Z,97.40
2018-11-21T20:42:01.375Z,97.30
2018-11-21T20:44:29.710Z,97.10
2018-11-21T20:46:58.067Z,97.10
2018-11-21T20:49:26.415Z,97.20
2018-11-21T20:51:54.726Z,97.10
2018-11-21T20:54:23.037Z,97.20
2018-11-21T20:56:51.346Z,97.20
2018-11-21T20:59:19.700Z,97.10
2018-11-21T21:01:47.951Z,97.30
2018-11-21T21:04:16.347Z,97.20
2018-11-21T21:06:44.639Z,97.40
2018-11-21T21:09:14.457Z,97.40
2018-11-21T21:11:42.759Z,97.40
2018-11-21T21:14:11.377Z,97.60
2018-11-21T21:16:39.767Z,97.30
2018-11-21T21:19:09.250Z,97.40
2018-11-21T21:21:37.538Z,97.30
2018-11-21T21:24:05.816Z,97.20
2018-11-21T21:26:34.099Z,97.10
2018-11-21T21:29:02.797Z,97.00
2018-11-21T21:31:31.426Z,97.10
2018-11-21T21:33:59.752Z,97.30
2018-11-21T21:36:28.037Z,97.50
2018-11-21T21:38:56.374Z,97.60
2018-11-21T21:41:24.654Z,97.60
2018-11-21T21:43:53.332Z,97.60
2018-11-21T21:46:21.579Z,97.50
2018-11-21T21:48:49.870Z,97.40
2018-11-21T21:51:18.256Z,97.30
2018-11-21T21:53:46.541Z,97.20
2018-11-21T21:56:14.812Z,97.10
2018-11-21T21:58:43.157Z,97.20
2018-11-21T22:01:11.457Z,97.20
2018-11-21T22:03:39.726Z,97.20
2018-11-21T22:06:08.010Z,97.20
2018-11-21T22:08:36.287Z,97.20
2018-11-21T22:11:04.571Z,97.30
2018-11-21T22:13:32.864Z,97.30
2018-11-21T22:16:01.177Z,97.40
2018-11-21T22:18:29.475Z,97.40
2018-11-21T22:20:57.769Z,97.30
2018-11-21T22:23:26.025Z,97.40
2018-11-21T22:25:54.314Z,97.30
2018-11-21T22:28:22.555Z,97.20
2018-11-21T22:30:50.859Z,97.40
2018-11-21T22:33:19.123Z,97.40
2018-11-21T22:35:47.838Z,97.40
2018-11-21T22:38:16.119Z,97.40
2018-11-21T22:40:44.721Z,97.50
2018-11-21T22:43:12.978Z,97.30
2018-11-21T22:45:41.236Z,97.40
2018-11-21T22:48:09.570Z,97.50
2018-11-21T22:50:37.925Z,97.50
2018-11-21T22:53:06.267Z,97.50
2018-11-21T22:55:34.635Z,97.60
2018-11-21T22:58:02.887Z,97.50
2018-11-21T23:00:51.222Z,97.50
2018-11-21T23:03:20.118Z,97.50
2018-11-21T23:05:48.514Z,97.40
2018-11-21T23:08:16.758Z,97.30
2018-11-21T23:10:45.102Z,97.40
2018-11-21T23:13:13.431Z,97.30
2018-11-21T23:15:41.936Z,97.30
2018-11-21T23:18:10.351Z,97.40
2018-11-21T23:20:38.614Z,97.40
2018-11-21T23:23:06.927Z,97.40
2018-11-21T23:25:35.242Z,97.30
2018-11-21T23:28:03.535Z,97.30
2018-11-21T23:30:31.815Z,97.00
2018-11-21T23:33:00.123Z,97.20
2018-11-21T23:35:28.450Z,97.40
2018-11-21T23:37:56.725Z,97.50
2018-11-21T23:40:25.036Z,97.40
2018-11-21T23:42:53.346Z,97.40
2018-11-21T23:45:21.642Z,97.50
2018-11-21T23:47:49.951Z,97.40
2018-11-21T23:50:18.946Z,97.30
2018-11-21T23:52:47.261Z,97.20
2018-11-21T23:55:17.728Z,97.30
2018-11-21T23:57:46.093Z,97.30
